KGPT METAR and TAF | Updated Today

KGPT METAR

Gulfport Biloxi International Airport

Observation time: 41 min. ago

KGPT 302053Z 34015G21KT 10SM CLR 21/07 A3017 RMK AO2 SLP217 T02110067 53005

Need help? Read our tutorial on how to read METARs or read the parsed version below.

Gulfport Biloxi International Airport (KGPT) METAR

  • Weather conditions on Wed, 30 Nov 2022 20:53:00 +0000 (41 min. ago):
  • Present conditions: Dry
  • Clouds: Clear skies
  • Visibility: 16093 meters
  • Wind: 340 degrees at 15 knots
  • Temperature: 21 celsius
  • Dew point: 7 celsius
  • Pressure: 30.17 inHg
  • Remarks: AO2 SLP217 T02110067 53005


Useful to know...

KGPT TAF

Gulfport Biloxi International Airport

KGPT 301720Z 3018/0118 36016G25KT P6SM BKN035 FM010100 03010KT P6SM FEW250
Observation time: 4:14 hr. ago
Need help? Read our tutorial on how to read TAFs or read the parsed version below.

Parsed version of TAF for Gulfport Biloxi International Airport (KGPT)

  • From 30 November at 18:00 UTC, to day 01 of the month at 18:00 UTC
  • Clouds: Broken sky at 1067 meters
  • Wind: 360 degrees at 16
  • From day 1 of the month at 01:00 UTC
  • Clouds: A few at 7620 meters
  • Wind: 30 degrees at 10

Airports near KGPT

KBIX Weather
IATA: BIX
Region: Biloxi

Keesler Air Force Base

Found in our database
KPQL Weather
Region: Pascagoula

Trent Lott International Airport

Not found in our database